Time;durP1;ratioP1;P1;durP2;ratioP2;P2;SDS_P1;SDS_P2;PMS_P1;PMS_P2;Temp;Humidity;BMP_temperature;BMP_pressure;BME280_temperature;BME280_humidity;BME280_pressure;Samples;Min_cycle;Max_cycle;Signal;HPM_P1;HPM_P2
2021/07/24 00:00:21;;;;;;;12.85;8.90;;;;;;;;;;5021015;28;20092;-84
2021/07/24 00:02:47;;;;;;;13.65;8.38;;;;;;;;;;5021541;28;20060;-82
2021/07/24 00:05:14;;;;;;;12.25;8.75;;;;;;;;;;5021006;28;20060;-82
2021/07/24 00:07:40;;;;;;;12.73;8.82;;;;;;;;;;5020006;28;20060;-82
2021/07/24 00:10:06;;;;;;;11.27;8.95;;;;;;;;;;5004636;28;20407;-82
2021/07/24 00:12:32;;;;;;;13.68;9.20;;;;;;;;;;5002643;28;20053;-82
2021/07/24 00:14:59;;;;;;;11.98;9.48;;;;;;;;;;5021130;28;20135;-82
2021/07/24 00:17:25;;;;;;;15.35;9.95;;;;;;;;;;5001520;28;20971;-84
2021/07/24 00:19:51;;;;;;;14.23;10.38;;;;;;;;;;5004378;28;20144;-83
2021/07/24 00:22:17;;;;;;;13.85;9.52;;;;;;;;;;5021636;28;20057;-83
2021/07/24 00:24:44;;;;;;;16.25;10.10;;;;;;;;;;5023789;28;20071;-84
2021/07/24 00:27:10;;;;;;;13.25;9.73;;;;;;;;;;5022282;28;20057;-82
2021/07/24 00:29:37;;;;;;;13.85;9.48;;;;;;;;;;5025163;28;20067;-83
2021/07/24 00:32:04;;;;;;;13.02;9.90;;;;;;;;;;5025989;28;20077;-83
2021/07/24 00:34:30;;;;;;;16.13;9.65;;;;;;;;;;5026099;28;20050;-83
2021/07/24 00:36:58;;;;;;;14.45;10.10;;;;;;;;;;5004985;28;20124;-83
2021/07/24 00:39:24;;;;;;;12.10;9.63;;;;;;;;;;5023856;28;20056;-85
2021/07/24 00:41:53;;;;;;;14.65;10.93;;;;;;;;;;5024361;28;20106;-82
2021/07/24 00:44:24;;;;;;;14.52;10.15;;;;;;;;;;5005222;28;20487;-83
2021/07/24 00:46:51;;;;;;;14.40;9.57;;;;;;;;;;5020199;28;20053;-84
2021/07/24 00:49:17;;;;;;;11.10;9.50;;;;;;;;;;5007637;28;20057;-83
2021/07/24 00:51:47;;;;;;;15.32;10.82;;;;;;;;;;5025140;28;20065;-82
2021/07/24 00:54:13;;;;;;;16.17;10.80;;;;;;;;;;5024800;28;20177;-83
2021/07/24 00:56:40;;;;;;;15.63;10.48;;;;;;;;;;5003460;28;20084;-81
2021/07/24 00:59:07;;;;;;;14.55;10.73;;;;;;;;;;5026011;28;20056;-82
2021/07/24 01:01:33;;;;;;;13.50;9.20;;;;;;;;;;5008043;28;20144;-82
2021/07/24 01:03:59;;;;;;;15.07;10.20;;;;;;;;;;5025605;28;20152;-84
2021/07/24 01:06:25;;;;;;;17.38;11.63;;;;;;;;;;5021743;28;20551;-84
2021/07/24 01:08:52;;;;;;;15.10;10.45;;;;;;;;;;5026360;28;20589;-83
2021/07/24 01:11:18;;;;;;;14.85;10.82;;;;;;;;;;5025770;28;20879;-83
2021/07/24 01:13:45;;;;;;;15.93;10.63;;;;;;;;;;5002967;28;20111;-82
2021/07/24 01:16:14;;;;;;;15.57;11.30;;;;;;;;;;5009689;28;20057;-82
2021/07/24 01:18:41;;;;;;;17.80;11.85;;;;;;;;;;5027207;28;20045;-82
2021/07/24 01:21:10;;;;;;;15.25;11.07;;;;;;;;;;5029208;28;20061;-82
2021/07/24 01:23:38;;;;;;;14.73;10.75;;;;;;;;;;5027681;28;20559;-82
2021/07/24 01:26:05;;;;;;;16.00;11.35;;;;;;;;;;5028732;28;20124;-82
2021/07/24 01:28:35;;;;;;;17.80;11.85;;;;;;;;;;5027955;28;20582;-83
2021/07/24 01:31:03;;;;;;;16.98;11.48;;;;;;;;;;5009588;28;20462;-82
2021/07/24 01:33:30;;;;;;;17.92;11.98;;;;;;;;;;5009478;28;20073;-84
2021/07/24 01:35:57;;;;;;;13.45;10.23;;;;;;;;;;5027498;28;20568;-82
2021/07/24 01:38:23;;;;;;;16.98;10.85;;;;;;;;;;5028107;28;20049;-82
2021/07/24 01:40:50;;;;;;;17.40;12.15;;;;;;;;;;5026920;28;20165;-82
2021/07/24 01:43:16;;;;;;;16.55;11.70;;;;;;;;;;5027520;28;20073;-81
2021/07/24 01:45:42;;;;;;;15.23;10.70;;;;;;;;;;5026776;28;20049;-82
2021/07/24 01:48:29;;;;;;;17.10;11.75;;;;;;;;;;5028833;28;20060;-81
2021/07/24 01:53:40;;;;;;;16.38;11.93;;;;;;;;;;5026590;28;20136;-80
2021/07/24 01:56:10;;;;;;;15.93;11.82;;;;;;;;;;5028725;28;20045;-81
2021/07/24 01:58:37;;;;;;;16.70;10.18;;;;;;;;;;5009962;28;20099;-81
2021/07/24 02:01:04;;;;;;;17.27;12.38;;;;;;;;;;5027003;28;20053;-80
2021/07/24 02:03:37;;;;;;;16.75;12.57;;;;;;;;;;5025878;28;20426;-83
2021/07/24 02:06:03;;;;;;;15.65;12.15;;;;;;;;;;5027457;28;20062;-81
2021/07/24 02:08:31;;;;;;;18.10;13.60;;;;;;;;;;5027384;28;20053;-83
2021/07/24 02:10:59;;;;;;;16.67;11.55;;;;;;;;;;5024825;28;20060;-81
2021/07/24 02:13:25;;;;;;;15.00;11.05;;;;;;;;;;5009032;28;20049;-80
2021/07/24 02:15:52;;;;;;;16.40;11.32;;;;;;;;;;5026729;28;20057;-81
2021/07/24 02:18:19;;;;;;;15.65;12.25;;;;;;;;;;5010370;28;20061;-81
2021/07/24 02:20:46;;;;;;;16.40;11.52;;;;;;;;;;5025442;28;20045;-81
2021/07/24 02:23:13;;;;;;;17.13;11.85;;;;;;;;;;5009534;28;20053;-82
2021/07/24 02:25:39;;;;;;;16.02;11.80;;;;;;;;;;5026524;28;20056;-80
2021/07/24 02:28:06;;;;;;;15.07;11.57;;;;;;;;;;5028230;28;20045;-81
2021/07/24 02:30:32;;;;;;;18.55;12.57;;;;;;;;;;5026028;28;20487;-83
2021/07/24 02:32:58;;;;;;;16.48;12.38;;;;;;;;;;5027503;28;20056;-80
2021/07/24 02:35:24;;;;;;;14.65;11.20;;;;;;;;;;5027136;28;20060;-81
2021/07/24 02:37:51;;;;;;;16.52;11.88;;;;;;;;;;5009004;28;20037;-80
2021/07/24 02:40:18;;;;;;;16.20;12.30;;;;;;;;;;5026084;28;20563;-80
2021/07/24 02:42:44;;;;;;;16.33;12.25;;;;;;;;;;5008432;28;20109;-81
2021/07/24 02:45:11;;;;;;;16.85;12.45;;;;;;;;;;5008342;28;20061;-81
2021/07/24 02:47:38;;;;;;;18.48;12.68;;;;;;;;;;5017636;28;20049;-81
2021/07/24 02:50:04;;;;;;;19.58;13.43;;;;;;;;;;5025829;28;20053;-81
2021/07/24 02:52:30;;;;;;;20.70;14.25;;;;;;;;;;5013172;28;20050;-83
2021/07/24 02:54:56;;;;;;;17.55;13.27;;;;;;;;;;5007283;28;20645;-80
2021/07/24 02:57:23;;;;;;;20.30;14.05;;;;;;;;;;5007260;28;20128;-81
2021/07/24 02:59:49;;;;;;;21.63;14.52;;;;;;;;;;5005455;28;20049;-80
2021/07/24 03:02:16;;;;;;;20.02;14.45;;;;;;;;;;5015445;28;20049;-81
2021/07/24 03:04:42;;;;;;;17.95;12.32;;;;;;;;;;5024964;28;20053;-81
2021/07/24 03:07:08;;;;;;;18.27;13.43;;;;;;;;;;5027036;28;20055;-81
2021/07/24 03:09:34;;;;;;;22.73;15.00;;;;;;;;;;5026155;28;20061;-81
2021/07/24 03:12:01;;;;;;;21.27;15.30;;;;;;;;;;5022574;28;20098;-80
2021/07/24 03:14:27;;;;;;;23.33;15.38;;;;;;;;;;5021822;28;20699;-81
2021/07/24 03:16:53;;;;;;;21.20;14.98;;;;;;;;;;5025877;28;20140;-81
2021/07/24 03:19:20;;;;;;;23.52;15.65;;;;;;;;;;5026495;28;20557;-81
2021/07/24 03:21:46;;;;;;;21.98;15.10;;;;;;;;;;5001069;28;20058;-81
2021/07/24 03:24:12;;;;;;;22.10;15.23;;;;;;;;;;4989047;28;20069;-80
2021/07/24 03:26:41;;;;;;;22.98;15.93;;;;;;;;;;4990517;28;20054;-80
2021/07/24 03:29:08;;;;;;;19.60;14.85;;;;;;;;;;4987413;28;20081;-80
2021/07/24 03:31:34;;;;;;;24.00;15.63;;;;;;;;;;4999031;28;20042;-82
2021/07/24 03:34:00;;;;;;;24.02;16.10;;;;;;;;;;5006862;28;20729;-80
2021/07/24 03:36:28;;;;;;;24.25;16.50;;;;;;;;;;4991007;28;20531;-81
2021/07/24 03:38:54;;;;;;;22.50;16.02;;;;;;;;;;5005938;28;20133;-80
2021/07/24 03:41:21;;;;;;;23.83;17.10;;;;;;;;;;4985305;28;20456;-83
2021/07/24 03:43:47;;;;;;;25.08;17.13;;;;;;;;;;4996576;28;20053;-81
2021/07/24 03:46:14;;;;;;;23.60;17.17;;;;;;;;;;5006500;28;20058;-81
2021/07/24 03:48:40;;;;;;;23.60;16.13;;;;;;;;;;5000201;28;20062;-82
2021/07/24 03:51:09;;;;;;;20.50;14.90;;;;;;;;;;4987487;28;20129;-80
2021/07/24 03:53:35;;;;;;;21.80;15.68;;;;;;;;;;4969072;28;20062;-81
2021/07/24 03:56:01;;;;;;;24.88;16.73;;;;;;;;;;4986868;28;20485;-80
2021/07/24 03:58:32;;;;;;;21.88;15.93;;;;;;;;;;4987395;28;20054;-82
2021/07/24 04:01:01;;;;;;;24.20;16.52;;;;;;;;;;5005808;28;20069;-81
2021/07/24 04:03:29;;;;;;;23.48;16.83;;;;;;;;;;5006122;28;20070;-85
2021/07/24 04:05:56;;;;;;;21.33;14.60;;;;;;;;;;5005610;28;20053;-80
2021/07/24 04:08:22;;;;;;;21.10;15.57;;;;;;;;;;5006094;28;20061;-80
2021/07/24 04:10:48;;;;;;;22.20;16.08;;;;;;;;;;4998146;28;20050;-80
2021/07/24 04:13:15;;;;;;;20.33;15.32;;;;;;;;;;5006815;28;20061;-81
2021/07/24 04:15:41;;;;;;;21.65;15.38;;;;;;;;;;5025231;28;20487;-81
2021/07/24 04:18:08;;;;;;;23.92;16.50;;;;;;;;;;5020988;28;20046;-81
2021/07/24 04:20:37;;;;;;;22.55;15.10;;;;;;;;;;5013825;28;20119;-82
2021/07/24 04:23:04;;;;;;;23.13;15.38;;;;;;;;;;5025837;28;20041;-80
2021/07/24 04:25:30;;;;;;;23.30;15.90;;;;;;;;;;5025958;28;20239;-82
2021/07/24 04:27:56;;;;;;;26.42;17.75;;;;;;;;;;5040748;28;20077;-80
2021/07/24 04:30:22;;;;;;;22.88;16.48;;;;;;;;;;5007350;28;20053;-80
2021/07/24 04:32:48;;;;;;;19.98;15.45;;;;;;;;;;5006906;28;20061;-80
2021/07/24 04:35:15;;;;;;;25.88;17.40;;;;;;;;;;5025993;28;20080;-82
2021/07/24 04:37:41;;;;;;;22.98;16.80;;;;;;;;;;5024808;28;20053;-79
2021/07/24 04:40:08;;;;;;;25.08;16.80;;;;;;;;;;5008028;28;20398;-80
2021/07/24 04:42:34;;;;;;;20.88;15.52;;;;;;;;;;5024454;28;20140;-84
2021/07/24 04:45:00;;;;;;;23.95;16.23;;;;;;;;;;5025648;28;20399;-80
2021/07/24 04:47:36;;;;;;;22.80;15.95;;;;;;;;;;5024383;28;20156;-80
2021/07/24 04:50:03;;;;;;;22.48;16.30;;;;;;;;;;5025347;28;20084;-84
2021/07/24 04:52:29;;;;;;;20.73;15.13;;;;;;;;;;5024480;28;20117;-80
2021/07/24 04:54:56;;;;;;;21.05;14.57;;;;;;;;;;5024243;28;20136;-82
2021/07/24 04:57:22;;;;;;;20.15;14.73;;;;;;;;;;5004408;28;20150;-81
2021/07/24 04:59:49;;;;;;;21.85;14.57;;;;;;;;;;5020313;28;20140;-80
2021/07/24 05:02:18;;;;;;;20.75;14.88;;;;;;;;;;5020006;28;20546;-80
2021/07/24 05:04:45;;;;;;;19.98;14.85;;;;;;;;;;5023990;28;20057;-82
2021/07/24 05:07:16;;;;;;;20.67;14.88;;;;;;;;;;5025183;28;20050;-81
2021/07/24 05:09:42;;;;;;;18.05;13.50;;;;;;;;;;5024983;28;20570;-82
2021/07/24 05:12:09;;;;;;;21.08;14.13;;;;;;;;;;5030159;28;20084;-83
2021/07/24 05:14:35;;;;;;;19.90;13.50;;;;;;;;;;5027125;28;20403;-83
2021/07/24 05:17:12;;;;;;;22.58;14.50;;;;;;;;;;5028422;28;20053;-80
2021/07/24 05:19:39;;;;;;;21.15;13.85;;;;;;;;;;5027748;28;20049;-80
2021/07/24 05:22:06;;;;;;;20.02;13.45;;;;;;;;;;5011220;28;20225;-81
2021/07/24 05:24:33;;;;;;;19.92;13.50;;;;;;;;;;5028226;28;20053;-83
2021/07/24 05:26:59;;;;;;;20.95;13.45;;;;;;;;;;5028284;28;20053;-83
2021/07/24 05:29:25;;;;;;;17.55;13.40;;;;;;;;;;5043879;28;20076;-80
2021/07/24 05:31:51;;;;;;;19.48;13.23;;;;;;;;;;5026978;28;20050;-80
2021/07/24 05:34:18;;;;;;;20.17;12.93;;;;;;;;;;5028787;28;20057;-83
2021/07/24 05:36:44;;;;;;;18.80;12.82;;;;;;;;;;5027277;28;20049;-83
2021/07/24 05:39:10;;;;;;;18.45;12.93;;;;;;;;;;5028567;28;20045;-82
2021/07/24 05:41:37;;;;;;;18.30;12.43;;;;;;;;;;5017602;28;20059;-81
2021/07/24 05:44:03;;;;;;;17.42;11.88;;;;;;;;;;5027983;28;20045;-82
2021/07/24 05:46:29;;;;;;;16.35;11.40;;;;;;;;;;5028154;28;20058;-82
2021/07/24 05:48:55;;;;;;;17.00;11.70;;;;;;;;;;5026976;28;20053;-81
2021/07/24 05:51:22;;;;;;;14.57;11.45;;;;;;;;;;5027184;28;20062;-83
2021/07/24 05:53:48;;;;;;;15.63;11.18;;;;;;;;;;5027282;28;20061;-81
2021/07/24 05:56:14;;;;;;;14.95;11.07;;;;;;;;;;5010499;28;20112;-82
2021/07/24 05:58:40;;;;;;;14.90;10.82;;;;;;;;;;5026558;28;20132;-81
2021/07/24 06:01:10;;;;;;;14.80;11.82;;;;;;;;;;5027469;28;20049;-83
2021/07/24 06:03:36;;;;;;;14.60;10.63;;;;;;;;;;5009685;28;20495;-84
2021/07/24 06:06:06;;;;;;;15.00;11.25;;;;;;;;;;5028142;28;20053;-82
2021/07/24 06:08:34;;;;;;;14.80;10.65;;;;;;;;;;5027180;28;20053;-84
2021/07/24 06:11:04;;;;;;;15.48;11.68;;;;;;;;;;5027657;28;20523;-81
2021/07/24 06:13:31;;;;;;;14.00;10.80;;;;;;;;;;5026147;28;20057;-82
2021/07/24 06:16:00;;;;;;;16.02;11.13;;;;;;;;;;5026798;28;20072;-82
2021/07/24 06:18:26;;;;;;;14.60;11.00;;;;;;;;;;5026624;28;20054;-81
2021/07/24 06:20:53;;;;;;;14.95;11.10;;;;;;;;;;5026042;28;20541;-82
2021/07/24 06:23:19;;;;;;;15.85;10.98;;;;;;;;;;5027208;28;20123;-81
2021/07/24 06:25:46;;;;;;;12.88;10.38;;;;;;;;;;5025511;28;20064;-84
2021/07/24 06:28:13;;;;;;;15.13;10.95;;;;;;;;;;5027289;28;20073;-81
2021/07/24 06:30:39;;;;;;;13.10;10.68;;;;;;;;;;5026084;28;20056;-81
2021/07/24 06:33:06;;;;;;;14.95;10.75;;;;;;;;;;5027186;28;20072;-84
2021/07/24 06:35:33;;;;;;;12.25;10.32;;;;;;;;;;5027115;28;20522;-84
2021/07/24 06:37:59;;;;;;;16.90;11.15;;;;;;;;;;5026621;28;20136;-83
2021/07/24 06:40:25;;;;;;;16.65;11.40;;;;;;;;;;5026696;28;20555;-82
2021/07/24 06:42:52;;;;;;;13.63;11.07;;;;;;;;;;5024920;28;20057;-82
2021/07/24 06:45:19;;;;;;;13.95;11.18;;;;;;;;;;5026734;28;20068;-82
2021/07/24 06:47:45;;;;;;;15.98;11.77;;;;;;;;;;5026001;28;20073;-82
2021/07/24 06:50:11;;;;;;;14.85;10.40;;;;;;;;;;5026471;28;20057;-82
2021/07/24 06:52:38;;;;;;;16.23;10.55;;;;;;;;;;5026761;28;20064;-82
2021/07/24 06:55:06;;;;;;;13.68;9.82;;;;;;;;;;5027078;28;20132;-81
2021/07/24 06:57:33;;;;;;;14.55;9.98;;;;;;;;;;5009414;28;20152;-82
2021/07/24 06:59:59;;;;;;;12.40;10.20;;;;;;;;;;5024536;28;20104;-82
2021/07/24 07:02:25;;;;;;;13.15;9.88;;;;;;;;;;5025876;28;20053;-81
2021/07/24 07:04:51;;;;;;;13.52;10.05;;;;;;;;;;5025714;28;20053;-82
2021/07/24 07:07:20;;;;;;;15.77;9.65;;;;;;;;;;5026887;28;20148;-81
2021/07/24 07:09:46;;;;;;;11.73;9.40;;;;;;;;;;5024896;28;20061;-82
2021/07/24 07:12:13;;;;;;;13.27;10.57;;;;;;;;;;5026495;28;20091;-82
2021/07/24 07:14:40;;;;;;;12.93;10.32;;;;;;;;;;5025452;28;20049;-82
2021/07/24 07:17:06;;;;;;;12.63;10.13;;;;;;;;;;5025205;28;20057;-81
2021/07/24 07:19:32;;;;;;;12.57;9.88;;;;;;;;;;5025601;28;20143;-82
2021/07/24 07:21:58;;;;;;;14.63;9.70;;;;;;;;;;5025583;28;20056;-82
2021/07/24 07:24:24;;;;;;;13.02;10.18;;;;;;;;;;5026654;28;20045;-83
2021/07/24 07:26:50;;;;;;;12.75;9.75;;;;;;;;;;5025980;28;20045;-82
2021/07/24 07:29:16;;;;;;;15.32;10.23;;;;;;;;;;5026330;28;20049;-83
2021/07/24 07:31:43;;;;;;;13.95;9.70;;;;;;;;;;5024885;28;20100;-83
2021/07/24 07:34:09;;;;;;;13.95;9.77;;;;;;;;;;5026641;28;20061;-82
2021/07/24 07:36:35;;;;;;;12.32;9.93;;;;;;;;;;5008083;28;20586;-85
2021/07/24 07:39:01;;;;;;;12.13;10.02;;;;;;;;;;5025332;28;20084;-84
2021/07/24 07:41:27;;;;;;;12.32;9.27;;;;;;;;;;5026280;28;20054;-84
2021/07/24 07:43:54;;;;;;;11.05;9.65;;;;;;;;;;5025210;28;20106;-84
2021/07/24 07:46:20;;;;;;;13.07;9.35;;;;;;;;;;5025133;28;20060;-83
2021/07/24 07:48:46;;;;;;;10.35;9.13;;;;;;;;;;5024328;28;20068;-82
2021/07/24 07:51:13;;;;;;;11.00;8.85;;;;;;;;;;5026054;28;20085;-83
2021/07/24 07:53:39;;;;;;;10.60;8.68;;;;;;;;;;5024631;28;20058;-85
2021/07/24 07:56:06;;;;;;;10.68;8.45;;;;;;;;;;5024710;28;20644;-83
2021/07/24 07:58:33;;;;;;;9.57;7.90;;;;;;;;;;5008005;28;20045;-83
2021/07/24 08:00:59;;;;;;;11.30;8.60;;;;;;;;;;5025159;28;20060;-84
2021/07/24 08:03:27;;;;;;;9.82;7.90;;;;;;;;;;5026157;28;20125;-84
2021/07/24 08:05:53;;;;;;;10.50;7.63;;;;;;;;;;5024933;28;20049;-83
2021/07/24 08:08:20;;;;;;;9.57;7.93;;;;;;;;;;5025058;28;20049;-82
2021/07/24 08:10:46;;;;;;;8.70;7.38;;;;;;;;;;5024979;28;20068;-84
2021/07/24 08:13:13;;;;;;;9.13;7.47;;;;;;;;;;5024671;28;20454;-83
2021/07/24 08:15:39;;;;;;;8.93;7.70;;;;;;;;;;5041112;28;20456;-84
2021/07/24 08:18:05;;;;;;;9.63;7.38;;;;;;;;;;5024665;28;20049;-83
2021/07/24 08:20:32;;;;;;;10.45;7.68;;;;;;;;;;5025032;28;20104;-83
2021/07/24 08:22:58;;;;;;;10.02;7.75;;;;;;;;;;5005282;28;20118;-83
2021/07/24 08:25:24;;;;;;;9.13;7.55;;;;;;;;;;5025607;28;20499;-83
2021/07/24 08:27:50;;;;;;;9.48;6.95;;;;;;;;;;5024425;28;20061;-86
2021/07/24 08:30:16;;;;;;;9.32;7.05;;;;;;;;;;5025031;28;20056;-83
2021/07/24 08:32:42;;;;;;;9.48;7.93;;;;;;;;;;5023959;28;20067;-83
2021/07/24 08:35:09;;;;;;;9.15;7.97;;;;;;;;;;5026112;28;20546;-84
2021/07/24 08:37:35;;;;;;;8.35;7.20;;;;;;;;;;5025764;28;20127;-85
2021/07/24 08:40:01;;;;;;;10.27;7.88;;;;;;;;;;5007102;28;20458;-83
2021/07/24 08:42:28;;;;;;;10.63;7.78;;;;;;;;;;5025618;28;20514;-85
2021/07/24 08:44:55;;;;;;;10.98;7.75;;;;;;;;;;5025564;28;20050;-85
2021/07/24 08:47:21;;;;;;;10.70;7.85;;;;;;;;;;5029815;28;20057;-83
2021/07/24 08:49:47;;;;;;;10.32;8.18;;;;;;;;;;5028029;28;20140;-84
2021/07/24 08:52:16;;;;;;;10.38;7.82;;;;;;;;;;5028467;28;20052;-83
2021/07/24 08:54:42;;;;;;;9.05;8.10;;;;;;;;;;5028156;28;20502;-83
2021/07/24 08:57:09;;;;;;;10.65;8.07;;;;;;;;;;5030057;28;20502;-83
2021/07/24 08:59:36;;;;;;;11.02;8.10;;;;;;;;;;5011769;28;20058;-83
2021/07/24 09:02:02;;;;;;;11.30;7.60;;;;;;;;;;5028256;28;20146;-82
2021/07/24 09:04:31;;;;;;;11.13;8.07;;;;;;;;;;5028949;28;20092;-84
2021/07/24 09:07:01;;;;;;;8.57;7.65;;;;;;;;;;5027921;28;20041;-83
2021/07/24 09:09:28;;;;;;;11.10;9.02;;;;;;;;;;5011021;28;20049;-83
2021/07/24 09:11:54;;;;;;;10.05;7.80;;;;;;;;;;5028051;28;20124;-82
2021/07/24 09:14:20;;;;;;;10.65;8.18;;;;;;;;;;5027500;28;20057;-82
2021/07/24 09:16:46;;;;;;;11.77;8.73;;;;;;;;;;5028041;28;20183;-83
2021/07/24 09:19:13;;;;;;;11.52;8.10;;;;;;;;;;5028486;28;20073;-82
2021/07/24 09:21:39;;;;;;;9.68;8.30;;;;;;;;;;5010455;28;20121;-84
2021/07/24 09:24:22;;;;;;;10.02;8.27;;;;;;;;;;5028609;28;20495;-82
2021/07/24 09:26:48;;;;;;;9.70;8.50;;;;;;;;;;5013859;28;20053;-82
2021/07/24 09:29:18;;;;;;;10.00;8.23;;;;;;;;;;5028684;28;20060;-82
2021/07/24 09:31:44;;;;;;;9.88;8.85;;;;;;;;;;5026889;28;20060;-83
2021/07/24 09:34:13;;;;;;;10.05;8.05;;;;;;;;;;5028591;28;20061;-83
2021/07/24 09:36:39;;;;;;;10.68;8.18;;;;;;;;;;5009783;28;20049;-84
2021/07/24 09:39:16;;;;;;;11.30;8.52;;;;;;;;;;5028191;28;20053;-84
2021/07/24 09:41:43;;;;;;;9.95;8.07;;;;;;;;;;5027031;28;20080;-83
2021/07/24 09:44:10;;;;;;;10.65;7.70;;;;;;;;;;5029227;28;20135;-83
2021/07/24 09:46:37;;;;;;;10.32;7.97;;;;;;;;;;5041002;28;20049;-85
2021/07/24 09:49:13;;;;;;;8.82;7.75;;;;;;;;;;5030043;28;20057;-83
2021/07/24 09:51:41;;;;;;;9.63;7.07;;;;;;;;;;5047809;28;20471;-84
2021/07/24 09:54:22;;;;;;;8.77;7.60;;;;;;;;;;5047291;28;20057;-83
2021/07/24 09:56:50;;;;;;;10.27;7.40;;;;;;;;;;5018693;28;20153;-83
2021/07/24 09:59:24;;;;;;;9.00;8.02;;;;;;;;;;5028073;28;20042;-83
2021/07/24 10:01:50;;;;;;;;;;;;;;;;;;5027545;28;20052;-83
2021/07/24 10:04:22;;;;;;;10.18;7.60;;;;;;;;;;5009802;28;20054;-82
2021/07/24 10:06:52;;;;;;;10.50;7.80;;;;;;;;;;5025948;28;20511;-83
2021/07/24 10:09:19;;;;;;;10.18;7.88;;;;;;;;;;5027964;28;20132;-83
2021/07/24 10:11:45;;;;;;;9.85;7.53;;;;;;;;;;5015309;28;20132;-83
2021/07/24 10:14:11;;;;;;;10.93;9.35;;;;;;;;;;5026793;28;20462;-81
2021/07/24 10:16:37;;;;;;;11.68;8.65;;;;;;;;;;5027945;28;20514;-84
2021/07/24 10:19:04;;;;;;;8.95;8.05;;;;;;;;;;5026877;28;20069;-83
2021/07/24 10:21:30;;;;;;;10.15;8.75;;;;;;;;;;5017200;28;20050;-84
2021/07/24 10:23:57;;;;;;;10.35;9.25;;;;;;;;;;5026705;28;20057;-83
2021/07/24 10:26:26;;;;;;;9.48;7.80;;;;;;;;;;5026842;28;20053;-83
2021/07/24 10:29:06;;;;;;;8.40;7.60;;;;;;;;;;5025879;28;20110;-82
2021/07/24 10:32:02;;;;;;;9.00;7.32;;;;;;;;;;5026428;28;20068;-83
2021/07/24 10:34:29;;;;;;;8.80;7.75;;;;;;;;;;4996919;28;20065;-82
2021/07/24 10:36:55;;;;;;;10.77;8.63;;;;;;;;;;5038628;28;20058;-83
2021/07/24 10:39:22;;;;;;;10.07;8.60;;;;;;;;;;5026319;28;20057;-83
2021/07/24 10:42:07;;;;;;;9.90;8.90;;;;;;;;;;5026345;28;20148;-83
2021/07/24 10:44:37;;;;;;;10.77;9.50;;;;;;;;;;5027059;28;20049;-83
2021/07/24 10:47:04;;;;;;;10.15;9.10;;;;;;;;;;5026481;28;20491;-83
2021/07/24 10:49:33;;;;;;;10.32;9.32;;;;;;;;;;5026761;28;20049;-83
2021/07/24 10:52:03;;;;;;;11.38;10.15;;;;;;;;;;5026047;28;20051;-82
2021/07/24 10:54:34;;;;;;;10.85;9.20;;;;;;;;;;5026702;28;20080;-83
2021/07/24 10:57:00;;;;;;;10.43;8.23;;;;;;;;;;5008091;28;20072;-84
2021/07/24 10:59:27;;;;;;;9.82;8.82;;;;;;;;;;5008974;28;20566;-83
2021/07/24 11:02:00;;;;;;;11.18;8.65;;;;;;;;;;5025615;28;20116;-82
2021/07/24 11:04:38;;;;;;;9.88;8.65;;;;;;;;;;5026717;28;20462;-83
2021/07/24 11:07:23;;;;;;;11.75;9.40;;;;;;;;;;5025724;28;20388;-83
2021/07/24 11:09:55;;;;;;;10.38;9.05;;;;;;;;;;5011598;28;20061;-82
2021/07/24 11:12:35;;;;;;;10.13;8.93;;;;;;;;;;5026411;28;20053;-83
2021/07/24 11:15:02;;;;;;;9.75;8.75;;;;;;;;;;5012319;28;20283;-83
2021/07/24 11:17:29;;;;;;;9.00;8.02;;;;;;;;;;5026113;28;20045;-84
2021/07/24 11:20:03;;;;;;;9.60;8.60;;;;;;;;;;5025251;28;20056;-83
2021/07/24 11:22:30;;;;;;;9.05;8.18;;;;;;;;;;5025791;28;20060;-84
2021/07/24 11:24:56;;;;;;;11.75;9.40;;;;;;;;;;5007631;28;20053;-83
2021/07/24 11:27:29;;;;;;;9.90;8.57;;;;;;;;;;5006982;28;20068;-83
2021/07/24 11:30:07;;;;;;;9.68;8.57;;;;;;;;;;5024828;28;20049;-84
2021/07/24 11:32:34;;;;;;;10.15;8.60;;;;;;;;;;5025663;28;20053;-83
2021/07/24 11:35:01;;;;;;;9.85;8.85;;;;;;;;;;5024997;28;20045;-84
2021/07/24 11:37:37;;;;;;;10.63;8.65;;;;;;;;;;5008420;28;20125;-83
2021/07/24 11:40:04;;;;;;;10.30;9.13;;;;;;;;;;4998088;28;20064;-83
2021/07/24 11:42:30;;;;;;;9.98;8.90;;;;;;;;;;5025954;28;20080;-84
2021/07/24 11:44:56;;;;;;;11.15;9.80;;;;;;;;;;5007405;28;20107;-83
2021/07/24 11:47:23;;;;;;;10.07;9.07;;;;;;;;;;5025433;28;20045;-83
2021/07/24 11:49:49;;;;;;;10.10;9.13;;;;;;;;;;5024410;28;20105;-83
2021/07/24 11:52:17;;;;;;;12.15;9.57;;;;;;;;;;5025477;28;20053;-84
2021/07/24 11:54:50;;;;;;;10.93;9.43;;;;;;;;;;5024868;28;20045;-85
2021/07/24 11:57:26;;;;;;;10.48;9.35;;;;;;;;;;5025929;28;20061;-82
2021/07/24 11:59:53;;;;;;;11.07;9.20;;;;;;;;;;5024795;28;20111;-83
2021/07/24 12:02:20;;;;;;;12.18;8.70;;;;;;;;;;5025798;28;20052;-83
2021/07/24 12:04:50;;;;;;;13.32;9.13;;;;;;;;;;5024966;28;20499;-84
2021/07/24 12:07:17;;;;;;;10.52;9.43;;;;;;;;;;5025896;28;20096;-83
2021/07/24 12:09:44;;;;;;;11.05;9.95;;;;;;;;;;5024904;28;20045;-85
2021/07/24 12:12:11;;;;;;;10.68;9.43;;;;;;;;;;5025122;28;20049;-83
2021/07/24 12:14:37;;;;;;;10.73;9.65;;;;;;;;;;5031858;28;20088;-83
2021/07/24 12:17:10;;;;;;;10.50;9.35;;;;;;;;;;5024569;28;20119;-83
2021/07/24 12:19:37;;;;;;;11.68;10.48;;;;;;;;;;5027452;28;20080;-84
2021/07/24 12:22:17;;;;;;;11.20;10.10;;;;;;;;;;5029089;28;20127;-85
2021/07/24 12:24:44;;;;;;;12.82;11.25;;;;;;;;;;5029477;28;20069;-87
2021/07/24 12:27:11;;;;;;;13.27;10.82;;;;;;;;;;5029775;28;20057;-84
2021/07/24 12:29:47;;;;;;;12.10;10.80;;;;;;;;;;5013113;28;20064;-85
2021/07/24 12:32:13;;;;;;;13.00;10.90;;;;;;;;;;5029105;28;20499;-84
2021/07/24 12:34:42;;;;;;;14.15;11.65;;;;;;;;;;5012558;28;20050;-84
2021/07/24 12:37:26;;;;;;;12.57;10.85;;;;;;;;;;5029075;28;20052;-84
2021/07/24 12:39:52;;;;;;;11.40;10.30;;;;;;;;;;4998583;28;20053;-85
2021/07/24 12:42:28;;;;;;;11.63;10.02;;;;;;;;;;5029522;28;20041;-84
2021/07/24 12:44:57;;;;;;;10.35;9.25;;;;;;;;;;5044384;28;20088;-84
2021/07/24 12:47:24;;;;;;;10.75;9.52;;;;;;;;;;5044849;28;20398;-82
2021/07/24 12:49:51;;;;;;;11.48;9.88;;;;;;;;;;5010793;28;20049;-83
2021/07/24 12:52:24;;;;;;;11.20;10.00;;;;;;;;;;5029222;28;20053;-84
2021/07/24 12:54:59;;;;;;;11.80;10.02;;;;;;;;;;5010088;28;20127;-83
2021/07/24 12:57:26;;;;;;;11.65;10.55;;;;;;;;;;5044140;28;20049;-85
2021/07/24 12:59:52;;;;;;;11.23;9.85;;;;;;;;;;5029100;28;20112;-83
2021/07/24 13:02:22;;;;;;;11.68;9.70;;;;;;;;;;5030344;28;20447;-84
2021/07/24 13:04:51;;;;;;;12.73;9.85;;;;;;;;;;5029044;28;20053;-84
2021/07/24 13:07:17;;;;;;;10.45;9.32;;;;;;;;;;5029158;28;20124;-85
2021/07/24 13:09:44;;;;;;;10.30;9.20;;;;;;;;;;5028454;28;20049;-87
2021/07/24 13:12:10;;;;;;;11.65;10.07;;;;;;;;;;5029082;28;20129;-84
2021/07/24 13:14:37;;;;;;;9.93;8.90;;;;;;;;;;5027548;28;20054;-86
2021/07/24 13:17:03;;;;;;;11.75;9.90;;;;;;;;;;5010092;28;20053;-84
2021/07/24 13:19:29;;;;;;;11.95;9.32;;;;;;;;;;5028291;28;20572;-85
2021/07/24 13:21:57;;;;;;;13.10;9.63;;;;;;;;;;5010417;28;20084;-85
2021/07/24 13:24:24;;;;;;;11.13;9.45;;;;;;;;;;5028604;28;20046;-86
2021/07/24 13:29:35;;;;;;;10.05;9.05;;;;;;;;;;5028764;28;20060;-83
2021/07/24 13:32:02;;;;;;;11.13;9.10;;;;;;;;;;5009195;28;20049;-84
2021/07/24 13:34:29;;;;;;;11.13;9.10;;;;;;;;;;5028255;28;20053;-84
2021/07/24 13:36:55;;;;;;;10.93;9.82;;;;;;;;;;5026570;28;20053;-83
2021/07/24 13:39:21;;;;;;;10.80;9.70;;;;;;;;;;5028148;28;20188;-83
2021/07/24 13:41:47;;;;;;;12.48;10.00;;;;;;;;;;5027840;28;20049;-86
2021/07/24 13:44:14;;;;;;;14.40;9.73;;;;;;;;;;5012599;28;20068;-85
2021/07/24 13:46:40;;;;;;;11.85;9.50;;;;;;;;;;5047210;28;20081;-85
2021/07/24 13:49:07;;;;;;;10.27;9.27;;;;;;;;;;5030209;28;20048;-85
2021/07/24 13:51:33;;;;;;;13.48;9.68;;;;;;;;;;5046340;28;20072;-86
2021/07/24 13:53:59;;;;;;;12.32;9.52;;;;;;;;;;5030351;28;20103;-85
2021/07/24 13:56:25;;;;;;;10.88;8.95;;;;;;;;;;5030845;28;20053;-86
2021/07/24 13:58:52;;;;;;;11.55;9.38;;;;;;;;;;5029969;28;20080;-87
2021/07/24 14:01:19;;;;;;;12.10;9.25;;;;;;;;;;5031276;28;20050;-87
2021/07/24 14:03:45;;;;;;;9.73;8.55;;;;;;;;;;5030228;28;20057;-89
2021/07/24 14:06:12;;;;;;;10.43;9.05;;;;;;;;;;5030167;28;20096;-86
2021/07/24 14:08:38;;;;;;;10.25;8.60;;;;;;;;;;5029865;28;20136;-86
2021/07/24 14:11:17;;;;;;;10.23;8.77;;;;;;;;;;5028365;28;20202;-84
2021/07/24 14:13:43;;;;;;;12.57;9.13;;;;;;;;;;5026411;28;20061;-87
2021/07/24 14:16:10;;;;;;;11.00;8.50;;;;;;;;;;5008324;28;20125;-85
2021/07/24 14:18:37;;;;;;;10.05;8.93;;;;;;;;;;5008655;28;20046;-85
2021/07/24 14:21:03;;;;;;;10.07;8.40;;;;;;;;;;5008194;28;20788;-86
2021/07/24 14:23:30;;;;;;;11.25;8.75;;;;;;;;;;5008679;28;20484;-86
2021/07/24 14:26:02;;;;;;;10.23;8.80;;;;;;;;;;5008926;28;20093;-85
2021/07/24 14:28:29;;;;;;;10.30;9.20;;;;;;;;;;5028244;28;20057;-87
2021/07/24 14:30:55;;;;;;;9.80;8.80;;;;;;;;;;5027337;28;20060;-86
2021/07/24 14:33:21;;;;;;;10.07;9.07;;;;;;;;;;5028473;28;20128;-85